Details From EDLP - Paderborn Lippstadt
To EDLW - Dortmund-Wickede
Flight Number -
Tags decoded
Created
Modified
Stats Distance 38 nm / 71 km
Max Altitude 0 ft / 0 m
Waypoints 3
Social Downloads 2
Likes 0
Share VATSIM

Download

Looking for another format? Having issues loading an existing format? Contact us
Advertisement - Login to hide

Notes

Requested: EDLP TINSA EDLW

Route

EDLP TINSA EDLW

ID Type Via Altitude Latitude Longitude Leg Dist Tot Dist Heading (true) Name
O EDLP APT - 0 ft / 0 m 51.61417˚ 8.61634˚ - 0 nm - Paderborn Lippstadt
TINSA FIX - 0 ft / 0 m 51.51528˚ 8.07417˚ 21 nm 21 nm 254° / 253° -
O EDLW APT - 0 ft / 0 m 51.51911˚ 7.61445˚ 17 nm 38 nm 271° / 271° Dortmund-Wickede

Altitude Profile

Advertisement - Login to hide

EDLP

Details ICAO EDLP (PAD)
Name Paderborn Lippstadt
Region Germany - Civil
Timezone Europe/Berlin (UTC+2.0)
Stats Elevation 699 ft / 213 m (AMSL)
Location 51.614166° 8.616336°
Runways 1
Magnetic Variation 2.417° E

METAR

EDLP 250520Z 13005KT CAVOK 16/14 Q1019

Decode

TAF

TAF EDLP 242300Z 2500/2524 11004KT 9999 SCT040 PROB30 TEMPO 2500/2503 4500 SHRA SCT040TCU BECMG 2506/2509 11009KT BECMG 2516/2519 12004KT

Decode

Departure Runways

ID Width Length Bearing (true) Bearing (mag) Surface Threshold Offset Overrun Length
06 148 ft / 45 m 7,136 ft / 2,175 m 57.28° 54.86° Asphalt 0 ft / 0 m 1,066 ft / 325 m
24 148 ft / 45 m 7,136 ft / 2,175 m 237.30° 234.88° Asphalt 0 ft / 0 m 397 ft / 121 m

EDLW

Details ICAO EDLW (DTM)
Name Dortmund-Wickede
Region Germany - Civil
Timezone Europe/Berlin (UTC+2.0)
Stats Elevation 425 ft / 130 m (AMSL)
Location 51.519107° 7.614447°
Runways 1
Magnetic Variation 2.118° E

METAR

EDLW 250520Z 07004KT 6000 NSC 15/15 Q1018

Decode

TAF

TAF EDLW 250350Z 2504/2524 10005KT 9999 SCT040 TEMPO 2504/2506 SHRA BKN030TCU PROB30 TEMPO 2514/2519 12010KT TSRA BKN030CB

Decode

Destination Runways

ID Width Length Bearing (true) Bearing (mag) Surface Threshold Offset Overrun Length
06 148 ft / 45 m 6,546 ft / 1,995 m 60.50° 58.38° Asphalt 984 ft / 300 m 197 ft / 60 m
24 148 ft / 45 m 6,546 ft / 1,995 m 240.52° 238.40° Asphalt 984 ft / 300 m 197 ft / 60 m

Approach Navaids

Runway Type Ident Frequency Range Bearing (true) Bearing (mag) Slope Elevation
06 Localiser IDWE 109.15 MHz 18 nm / 33 km 60.52° 58.41° - 425 ft / 130 m (AMSL)
06 Glidescope IDWE 109.15 MHz 10 nm / 19 km 60.51° 58.39° 3.00° 425 ft / 130 m (AMSL)
24 Localiser IDWW 110.30 MHz 18 nm / 33 km 240.49° 238.37° - 425 ft / 130 m (AMSL)
24 Glidescope IDWW 110.30 MHz 10 nm / 19 km 240.51° 238.39° 3.00° 425 ft / 130 m (AMSL)

Popular Alternatives